Terminal Aerodrome Forecast
Issued by NWS

Current Version | Previous Version | Graphics & Text | Print | Product List | Glossary On
Versions: 1 2 3 4 5 6 7 8 9 10 11 12 13 14 15 16 17 18 19 20 21 22 23 24 25 26
583
FTUS41 KPBZ 042333
TAFMGW
TAF
KMGW 042333Z 0500/0524 VRB03KT P6SM VCSH BKN060
     FM050200 21003KT 5SM -SHRA OVC025
     FM050600 VRB03KT 3SM -SHRA BR OVC015
     FM051300 02003KT P6SM -SHRA OVC025
     FM051600 35005KT P6SM VCSH OVC040=

USA.gov is the U.S. government's official web portal to all federal, state and local government web resources and services.